sensor_id;sensor_type;location;lat;lon;timestamp;P1;durP1;ratioP1;P2;durP2;ratioP2
41263;SDS011;26998;48.714;9.414;2023-03-23T00:01:02;11.00;;;3.88;;
41263;SDS011;26998;48.714;9.414;2023-03-23T00:03:29;4.78;;;3.78;;
41263;SDS011;26998;48.714;9.414;2023-03-23T00:05:55;7.43;;;4.53;;
41263;SDS011;26998;48.714;9.414;2023-03-23T00:08:20;5.82;;;4.55;;
41263;SDS011;26998;48.714;9.414;2023-03-23T00:10:49;5.10;;;4.00;;
41263;SDS011;26998;48.714;9.414;2023-03-23T00:13:15;5.38;;;4.07;;
41263;SDS011;26998;48.714;9.414;2023-03-23T00:15:41;4.38;;;3.65;;
41263;SDS011;26998;48.714;9.414;2023-03-23T00:18:07;6.68;;;4.15;;
41263;SDS011;26998;48.714;9.414;2023-03-23T00:20:32;6.45;;;3.95;;
41263;SDS011;26998;48.714;9.414;2023-03-23T00:22:57;6.90;;;4.03;;
41263;SDS011;26998;48.714;9.414;2023-03-23T00:25:22;5.38;;;4.05;;
41263;SDS011;26998;48.714;9.414;2023-03-23T00:27:48;5.85;;;3.85;;
41263;SDS011;26998;48.714;9.414;2023-03-23T00:30:13;6.22;;;3.92;;
41263;SDS011;26998;48.714;9.414;2023-03-23T00:32:38;8.40;;;4.32;;
41263;SDS011;26998;48.714;9.414;2023-03-23T00:35:04;7.18;;;4.18;;
41263;SDS011;26998;48.714;9.414;2023-03-23T00:37:29;7.72;;;3.97;;
41263;SDS011;26998;48.714;9.414;2023-03-23T00:39:55;5.72;;;4.22;;
41263;SDS011;26998;48.714;9.414;2023-03-23T00:42:20;7.20;;;3.83;;
41263;SDS011;26998;48.714;9.414;2023-03-23T00:44:45;6.15;;;4.05;;
41263;SDS011;26998;48.714;9.414;2023-03-23T00:47:11;5.97;;;4.20;;
41263;SDS011;26998;48.714;9.414;2023-03-23T00:49:37;6.38;;;4.28;;
41263;SDS011;26998;48.714;9.414;2023-03-23T00:52:03;7.18;;;4.55;;
41263;SDS011;26998;48.714;9.414;2023-03-23T00:54:30;11.40;;;4.85;;
41263;SDS011;26998;48.714;9.414;2023-03-23T00:56:56;8.88;;;4.35;;
41263;SDS011;26998;48.714;9.414;2023-03-23T00:59:21;6.63;;;3.95;;
41263;SDS011;26998;48.714;9.414;2023-03-23T01:01:47;10.00;;;4.70;;
41263;SDS011;26998;48.714;9.414;2023-03-23T01:04:13;6.90;;;4.60;;
41263;SDS011;26998;48.714;9.414;2023-03-23T01:06:39;8.75;;;4.80;;
41263;SDS011;26998;48.714;9.414;2023-03-23T01:09:07;7.47;;;4.72;;
41263;SDS011;26998;48.714;9.414;2023-03-23T01:11:37;9.13;;;4.93;;
41263;SDS011;26998;48.714;9.414;2023-03-23T01:14:03;5.45;;;4.20;;
41263;SDS011;26998;48.714;9.414;2023-03-23T01:16:28;6.72;;;4.50;;
41263;SDS011;26998;48.714;9.414;2023-03-23T01:18:54;5.63;;;4.00;;
41263;SDS011;26998;48.714;9.414;2023-03-23T01:21:19;5.65;;;4.68;;
41263;SDS011;26998;48.714;9.414;2023-03-23T01:23:46;8.13;;;4.57;;
41263;SDS011;26998;48.714;9.414;2023-03-23T01:26:12;9.07;;;5.25;;
41263;SDS011;26998;48.714;9.414;2023-03-23T01:28:39;7.03;;;4.30;;
41263;SDS011;26998;48.714;9.414;2023-03-23T01:31:09;6.95;;;4.95;;
41263;SDS011;26998;48.714;9.414;2023-03-23T01:33:37;7.82;;;4.95;;
41263;SDS011;26998;48.714;9.414;2023-03-23T01:36:04;8.88;;;5.05;;
41263;SDS011;26998;48.714;9.414;2023-03-23T01:38:32;7.43;;;4.72;;
41263;SDS011;26998;48.714;9.414;2023-03-23T01:41:01;8.48;;;4.85;;
41263;SDS011;26998;48.714;9.414;2023-03-23T01:43:27;11.27;;;5.10;;
41263;SDS011;26998;48.714;9.414;2023-03-23T01:45:52;11.57;;;4.97;;
41263;SDS011;26998;48.714;9.414;2023-03-23T01:48:20;6.97;;;5.07;;
41263;SDS011;26998;48.714;9.414;2023-03-23T01:53:25;8.23;;;4.68;;
41263;SDS011;26998;48.714;9.414;2023-03-23T01:55:54;9.50;;;4.40;;
41263;SDS011;26998;48.714;9.414;2023-03-23T01:58:23;6.78;;;4.50;;
41263;SDS011;26998;48.714;9.414;2023-03-23T02:00:52;6.53;;;4.43;;
41263;SDS011;26998;48.714;9.414;2023-03-23T02:03:20;6.20;;;4.30;;
41263;SDS011;26998;48.714;9.414;2023-03-23T02:05:46;6.72;;;4.30;;
41263;SDS011;26998;48.714;9.414;2023-03-23T02:08:11;7.70;;;4.80;;
41263;SDS011;26998;48.714;9.414;2023-03-23T02:10:39;7.47;;;4.03;;
41263;SDS011;26998;48.714;9.414;2023-03-23T02:13:06;10.52;;;4.40;;
41263;SDS011;26998;48.714;9.414;2023-03-23T02:15:40;8.05;;;4.63;;
41263;SDS011;26998;48.714;9.414;2023-03-23T02:23:51;9.18;;;4.30;;
41263;SDS011;26998;48.714;9.414;2023-03-23T02:26:56;4.88;;;3.55;;
41263;SDS011;26998;48.714;9.414;2023-03-23T02:35:34;6.97;;;4.22;;
41263;SDS011;26998;48.714;9.414;2023-03-23T02:40:47;6.53;;;4.35;;
41263;SDS011;26998;48.714;9.414;2023-03-23T02:43:20;6.25;;;4.10;;
41263;SDS011;26998;48.714;9.414;2023-03-23T02:45:48;6.45;;;4.40;;
41263;SDS011;26998;48.714;9.414;2023-03-23T02:48:16;5.45;;;4.30;;
41263;SDS011;26998;48.714;9.414;2023-03-23T02:50:46;6.50;;;4.55;;
41263;SDS011;26998;48.714;9.414;2023-03-23T02:53:16;6.22;;;4.95;;
41263;SDS011;26998;48.714;9.414;2023-03-23T02:55:45;8.43;;;5.03;;
41263;SDS011;26998;48.714;9.414;2023-03-23T02:58:11;6.15;;;4.63;;
41263;SDS011;26998;48.714;9.414;2023-03-23T03:00:37;9.27;;;4.85;;
41263;SDS011;26998;48.714;9.414;2023-03-23T03:03:03;7.10;;;4.85;;
41263;SDS011;26998;48.714;9.414;2023-03-23T03:05:53;8.75;;;5.28;;
41263;SDS011;26998;48.714;9.414;2023-03-23T03:08:26;9.48;;;5.05;;
41263;SDS011;26998;48.714;9.414;2023-03-23T03:11:05;7.80;;;5.43;;
41263;SDS011;26998;48.714;9.414;2023-03-23T03:18:56;8.75;;;5.63;;
41263;SDS011;26998;48.714;9.414;2023-03-23T03:21:28;8.75;;;5.75;;
41263;SDS011;26998;48.714;9.414;2023-03-23T03:23:58;10.25;;;6.15;;
41263;SDS011;26998;48.714;9.414;2023-03-23T03:26:27;5.95;;;4.70;;
41263;SDS011;26998;48.714;9.414;2023-03-23T03:28:55;8.88;;;4.68;;
41263;SDS011;26998;48.714;9.414;2023-03-23T03:31:22;7.07;;;5.13;;
41263;SDS011;26998;48.714;9.414;2023-03-23T03:33:52;11.13;;;4.57;;
41263;SDS011;26998;48.714;9.414;2023-03-23T03:36:22;7.70;;;4.45;;
41263;SDS011;26998;48.714;9.414;2023-03-23T03:38:51;8.35;;;4.97;;
41263;SDS011;26998;48.714;9.414;2023-03-23T03:41:17;5.97;;;4.60;;
41263;SDS011;26998;48.714;9.414;2023-03-23T03:43:44;7.03;;;4.43;;
41263;SDS011;26998;48.714;9.414;2023-03-23T03:46:09;5.03;;;4.07;;
41263;SDS011;26998;48.714;9.414;2023-03-23T03:48:35;6.72;;;4.47;;
41263;SDS011;26998;48.714;9.414;2023-03-23T03:51:00;7.00;;;4.30;;
41263;SDS011;26998;48.714;9.414;2023-03-23T03:53:26;5.88;;;4.45;;
41263;SDS011;26998;48.714;9.414;2023-03-23T03:55:52;10.98;;;4.10;;
41263;SDS011;26998;48.714;9.414;2023-03-23T03:58:17;6.93;;;4.60;;
41263;SDS011;26998;48.714;9.414;2023-03-23T04:00:43;7.65;;;4.43;;
41263;SDS011;26998;48.714;9.414;2023-03-23T04:03:08;11.35;;;5.15;;
41263;SDS011;26998;48.714;9.414;2023-03-23T04:05:33;6.60;;;4.38;;
41263;SDS011;26998;48.714;9.414;2023-03-23T04:07:59;9.18;;;5.03;;
41263;SDS011;26998;48.714;9.414;2023-03-23T04:10:24;9.50;;;5.32;;
41263;SDS011;26998;48.714;9.414;2023-03-23T04:12:49;7.38;;;4.85;;
41263;SDS011;26998;48.714;9.414;2023-03-23T04:15:14;11.18;;;4.78;;
41263;SDS011;26998;48.714;9.414;2023-03-23T04:17:40;7.45;;;4.47;;
41263;SDS011;26998;48.714;9.414;2023-03-23T04:20:05;7.63;;;5.20;;
41263;SDS011;26998;48.714;9.414;2023-03-23T04:22:31;5.45;;;4.38;;
41263;SDS011;26998;48.714;9.414;2023-03-23T04:24:57;8.75;;;4.43;;
41263;SDS011;26998;48.714;9.414;2023-03-23T04:27:24;6.97;;;4.68;;
41263;SDS011;26998;48.714;9.414;2023-03-23T04:29:50;7.10;;;4.68;;
41263;SDS011;26998;48.714;9.414;2023-03-23T04:32:15;6.75;;;4.50;;
41263;SDS011;26998;48.714;9.414;2023-03-23T04:34:41;5.95;;;4.00;;
41263;SDS011;26998;48.714;9.414;2023-03-23T04:37:06;9.90;;;4.85;;
41263;SDS011;26998;48.714;9.414;2023-03-23T04:39:31;6.65;;;4.53;;
41263;SDS011;26998;48.714;9.414;2023-03-23T04:41:57;8.23;;;4.60;;
41263;SDS011;26998;48.714;9.414;2023-03-23T04:44:22;6.97;;;4.43;;
41263;SDS011;26998;48.714;9.414;2023-03-23T04:46:48;9.60;;;4.45;;
41263;SDS011;26998;48.714;9.414;2023-03-23T04:49:13;6.93;;;4.40;;
41263;SDS011;26998;48.714;9.414;2023-03-23T04:51:40;5.03;;;3.97;;
41263;SDS011;26998;48.714;9.414;2023-03-23T04:54:05;6.22;;;3.95;;
41263;SDS011;26998;48.714;9.414;2023-03-23T04:56:30;6.93;;;4.38;;
41263;SDS011;26998;48.714;9.414;2023-03-23T04:58:56;7.32;;;4.50;;
41263;SDS011;26998;48.714;9.414;2023-03-23T05:01:21;6.85;;;4.20;;
41263;SDS011;26998;48.714;9.414;2023-03-23T05:03:46;7.90;;;4.47;;
41263;SDS011;26998;48.714;9.414;2023-03-23T05:06:12;8.00;;;4.50;;
41263;SDS011;26998;48.714;9.414;2023-03-23T05:08:37;7.18;;;3.90;;
41263;SDS011;26998;48.714;9.414;2023-03-23T05:11:02;9.88;;;3.88;;
41263;SDS011;26998;48.714;9.414;2023-03-23T05:13:28;6.22;;;3.90;;
41263;SDS011;26998;48.714;9.414;2023-03-23T05:15:53;5.22;;;4.00;;
41263;SDS011;26998;48.714;9.414;2023-03-23T05:18:19;8.60;;;3.92;;
41263;SDS011;26998;48.714;9.414;2023-03-23T05:20:44;7.90;;;4.07;;
41263;SDS011;26998;48.714;9.414;2023-03-23T05:23:10;8.82;;;3.97;;
41263;SDS011;26998;48.714;9.414;2023-03-23T05:25:35;7.38;;;4.80;;
41263;SDS011;26998;48.714;9.414;2023-03-23T05:28:02;7.32;;;4.10;;
41263;SDS011;26998;48.714;9.414;2023-03-23T05:30:28;7.97;;;4.47;;
41263;SDS011;26998;48.714;9.414;2023-03-23T05:32:53;7.40;;;4.20;;
41263;SDS011;26998;48.714;9.414;2023-03-23T05:35:20;5.53;;;4.30;;
41263;SDS011;26998;48.714;9.414;2023-03-23T05:37:45;8.68;;;4.20;;
41263;SDS011;26998;48.714;9.414;2023-03-23T05:40:11;6.85;;;3.65;;
41263;SDS011;26998;48.714;9.414;2023-03-23T05:42:38;7.22;;;4.70;;
41263;SDS011;26998;48.714;9.414;2023-03-23T05:45:05;5.80;;;3.42;;
41263;SDS011;26998;48.714;9.414;2023-03-23T05:47:31;18.52;;;3.80;;
41263;SDS011;26998;48.714;9.414;2023-03-23T05:49:56;6.25;;;4.38;;
41263;SDS011;26998;48.714;9.414;2023-03-23T05:52:23;7.45;;;4.05;;
41263;SDS011;26998;48.714;9.414;2023-03-23T05:54:48;8.77;;;4.25;;
41263;SDS011;26998;48.714;9.414;2023-03-23T05:57:14;6.80;;;3.65;;
41263;SDS011;26998;48.714;9.414;2023-03-23T05:59:39;8.02;;;4.80;;
41263;SDS011;26998;48.714;9.414;2023-03-23T06:02:04;6.00;;;3.92;;
41263;SDS011;26998;48.714;9.414;2023-03-23T06:04:30;7.38;;;4.18;;
41263;SDS011;26998;48.714;9.414;2023-03-23T06:06:56;7.85;;;3.65;;
41263;SDS011;26998;48.714;9.414;2023-03-23T06:09:22;11.20;;;4.40;;
41263;SDS011;26998;48.714;9.414;2023-03-23T06:11:47;10.43;;;4.75;;
41263;SDS011;26998;48.714;9.414;2023-03-23T06:14:12;8.00;;;4.78;;
41263;SDS011;26998;48.714;9.414;2023-03-23T06:16:38;7.45;;;5.32;;
41263;SDS011;26998;48.714;9.414;2023-03-23T06:19:03;8.80;;;4.70;;
41263;SDS011;26998;48.714;9.414;2023-03-23T06:21:28;8.57;;;4.35;;
41263;SDS011;26998;48.714;9.414;2023-03-23T06:23:54;9.48;;;3.75;;
41263;SDS011;26998;48.714;9.414;2023-03-23T06:26:19;4.97;;;3.78;;
41263;SDS011;26998;48.714;9.414;2023-03-23T06:28:46;10.85;;;4.32;;
41263;SDS011;26998;48.714;9.414;2023-03-23T06:31:12;6.18;;;4.15;;
41263;SDS011;26998;48.714;9.414;2023-03-23T06:33:37;6.50;;;4.10;;
41263;SDS011;26998;48.714;9.414;2023-03-23T06:36:03;14.35;;;4.85;;
41263;SDS011;26998;48.714;9.414;2023-03-23T06:38:30;8.18;;;4.05;;
41263;SDS011;26998;48.714;9.414;2023-03-23T06:40:55;7.18;;;4.30;;
41263;SDS011;26998;48.714;9.414;2023-03-23T06:43:21;7.45;;;4.68;;
41263;SDS011;26998;48.714;9.414;2023-03-23T06:45:46;9.20;;;4.47;;
41263;SDS011;26998;48.714;9.414;2023-03-23T06:48:12;10.27;;;5.38;;
41263;SDS011;26998;48.714;9.414;2023-03-23T06:50:38;6.05;;;4.03;;
41263;SDS011;26998;48.714;9.414;2023-03-23T06:53:03;7.53;;;4.68;;
41263;SDS011;26998;48.714;9.414;2023-03-23T06:55:28;9.60;;;4.88;;
41263;SDS011;26998;48.714;9.414;2023-03-23T06:57:54;7.65;;;4.20;;
41263;SDS011;26998;48.714;9.414;2023-03-23T07:00:19;11.68;;;5.03;;
41263;SDS011;26998;48.714;9.414;2023-03-23T07:02:44;12.40;;;4.80;;
41263;SDS011;26998;48.714;9.414;2023-03-23T07:05:10;6.20;;;4.22;;
41263;SDS011;26998;48.714;9.414;2023-03-23T07:07:37;9.32;;;4.53;;
41263;SDS011;26998;48.714;9.414;2023-03-23T07:10:03;8.65;;;4.78;;
41263;SDS011;26998;48.714;9.414;2023-03-23T07:12:31;8.63;;;4.97;;
41263;SDS011;26998;48.714;9.414;2023-03-23T07:14:57;6.82;;;4.25;;
41263;SDS011;26998;48.714;9.414;2023-03-23T07:17:22;7.00;;;4.78;;
41263;SDS011;26998;48.714;9.414;2023-03-23T07:19:47;9.98;;;4.95;;
41263;SDS011;26998;48.714;9.414;2023-03-23T07:22:13;9.55;;;4.55;;
41263;SDS011;26998;48.714;9.414;2023-03-23T07:24:38;9.52;;;4.65;;
41263;SDS011;26998;48.714;9.414;2023-03-23T07:27:03;8.00;;;4.40;;
41263;SDS011;26998;48.714;9.414;2023-03-23T07:29:30;6.10;;;3.97;;
41263;SDS011;26998;48.714;9.414;2023-03-23T07:31:56;5.78;;;4.20;;
41263;SDS011;26998;48.714;9.414;2023-03-23T07:34:21;5.85;;;4.07;;
41263;SDS011;26998;48.714;9.414;2023-03-23T07:36:47;6.70;;;3.80;;
41263;SDS011;26998;48.714;9.414;2023-03-23T07:39:13;4.53;;;3.45;;
41263;SDS011;26998;48.714;9.414;2023-03-23T07:41:39;6.53;;;4.10;;
41263;SDS011;26998;48.714;9.414;2023-03-23T07:44:05;28.42;;;17.17;;
41263;SDS011;26998;48.714;9.414;2023-03-23T07:46:31;12.75;;;7.80;;
41263;SDS011;26998;48.714;9.414;2023-03-23T07:48:57;7.07;;;4.47;;
41263;SDS011;26998;48.714;9.414;2023-03-23T07:51:22;6.63;;;4.05;;
41263;SDS011;26998;48.714;9.414;2023-03-23T07:53:48;7.35;;;4.07;;
41263;SDS011;26998;48.714;9.414;2023-03-23T07:56:14;6.13;;;3.95;;
41263;SDS011;26998;48.714;9.414;2023-03-23T07:58:40;7.97;;;3.95;;
41263;SDS011;26998;48.714;9.414;2023-03-23T08:01:06;5.55;;;3.92;;
41263;SDS011;26998;48.714;9.414;2023-03-23T08:03:32;12.25;;;4.40;;
41263;SDS011;26998;48.714;9.414;2023-03-23T08:06:00;10.13;;;4.65;;
41263;SDS011;26998;48.714;9.414;2023-03-23T08:08:26;6.93;;;4.38;;
41263;SDS011;26998;48.714;9.414;2023-03-23T08:10:51;9.00;;;3.92;;
41263;SDS011;26998;48.714;9.414;2023-03-23T08:13:17;6.22;;;4.00;;
41263;SDS011;26998;48.714;9.414;2023-03-23T08:15:42;7.25;;;4.25;;
41263;SDS011;26998;48.714;9.414;2023-03-23T08:18:08;7.95;;;4.30;;
41263;SDS011;26998;48.714;9.414;2023-03-23T08:20:34;10.50;;;4.18;;
41263;SDS011;26998;48.714;9.414;2023-03-23T08:23:00;19.38;;;4.47;;
41263;SDS011;26998;48.714;9.414;2023-03-23T08:25:25;6.60;;;3.85;;
41263;SDS011;26998;48.714;9.414;2023-03-23T08:27:51;8.23;;;4.18;;
41263;SDS011;26998;48.714;9.414;2023-03-23T08:30:18;8.50;;;4.60;;
41263;SDS011;26998;48.714;9.414;2023-03-23T08:32:45;6.00;;;4.05;;
41263;SDS011;26998;48.714;9.414;2023-03-23T08:35:11;7.07;;;4.63;;
41263;SDS011;26998;48.714;9.414;2023-03-23T08:37:38;7.53;;;4.65;;
41263;SDS011;26998;48.714;9.414;2023-03-23T08:40:06;7.20;;;4.25;;
41263;SDS011;26998;48.714;9.414;2023-03-23T08:42:32;5.60;;;3.83;;
41263;SDS011;26998;48.714;9.414;2023-03-23T08:44:58;7.13;;;4.60;;
41263;SDS011;26998;48.714;9.414;2023-03-23T08:47:23;10.82;;;4.93;;
41263;SDS011;26998;48.714;9.414;2023-03-23T08:49:48;8.23;;;4.63;;
41263;SDS011;26998;48.714;9.414;2023-03-23T08:52:13;25.42;;;7.88;;
41263;SDS011;26998;48.714;9.414;2023-03-23T08:54:39;18.83;;;7.57;;
41263;SDS011;26998;48.714;9.414;2023-03-23T08:57:04;17.60;;;6.22;;
41263;SDS011;26998;48.714;9.414;2023-03-23T08:59:29;12.60;;;5.70;;
41263;SDS011;26998;48.714;9.414;2023-03-23T09:01:55;3.67;;;2.47;;
41263;SDS011;26998;48.714;9.414;2023-03-23T09:04:20;9.27;;;4.82;;
41263;SDS011;26998;48.714;9.414;2023-03-23T09:06:45;10.85;;;4.43;;
41263;SDS011;26998;48.714;9.414;2023-03-23T09:09:11;9.85;;;4.75;;
41263;SDS011;26998;48.714;9.414;2023-03-23T09:11:37;13.15;;;4.07;;
41263;SDS011;26998;48.714;9.414;2023-03-23T09:14:03;30.98;;;5.07;;
41263;SDS011;26998;48.714;9.414;2023-03-23T09:16:30;6.18;;;2.67;;
41263;SDS011;26998;48.714;9.414;2023-03-23T09:18:55;12.00;;;3.42;;
41263;SDS011;26998;48.714;9.414;2023-03-23T09:21:21;6.45;;;2.72;;
41263;SDS011;26998;48.714;9.414;2023-03-23T09:23:46;8.60;;;3.15;;
41263;SDS011;26998;48.714;9.414;2023-03-23T09:26:11;10.93;;;3.95;;
41263;SDS011;26998;48.714;9.414;2023-03-23T09:28:37;6.18;;;4.03;;
41263;SDS011;26998;48.714;9.414;2023-03-23T09:31:02;9.38;;;2.90;;
41263;SDS011;26998;48.714;9.414;2023-03-23T09:33:28;8.93;;;3.08;;
41263;SDS011;26998;48.714;9.414;2023-03-23T09:35:53;5.70;;;3.17;;
41263;SDS011;26998;48.714;9.414;2023-03-23T09:38:18;4.15;;;2.42;;
41263;SDS011;26998;48.714;9.414;2023-03-23T09:40:58;6.70;;;2.22;;
41263;SDS011;26998;48.714;9.414;2023-03-23T09:56:35;8.88;;;2.35;;
41263;SDS011;26998;48.714;9.414;2023-03-23T09:59:16;9.95;;;2.10;;
41263;SDS011;26998;48.714;9.414;2023-03-23T10:02:11;2.90;;;2.30;;
41263;SDS011;26998;48.714;9.414;2023-03-23T10:04:49;9.90;;;4.68;;
41263;SDS011;26998;48.714;9.414;2023-03-23T10:07:20;12.38;;;4.50;;
41263;SDS011;26998;48.714;9.414;2023-03-23T10:09:49;5.95;;;4.47;;
41263;SDS011;26998;48.714;9.414;2023-03-23T10:12:26;11.20;;;3.88;;
41263;SDS011;26998;48.714;9.414;2023-03-23T10:17:50;5.63;;;1.77;;
41263;SDS011;26998;48.714;9.414;2023-03-23T10:20:25;9.52;;;2.40;;
41263;SDS011;26998;48.714;9.414;2023-03-23T10:25:50;5.90;;;2.75;;
41263;SDS011;26998;48.714;9.414;2023-03-23T10:28:18;6.80;;;2.17;;
41263;SDS011;26998;48.714;9.414;2023-03-23T10:30:55;7.32;;;2.10;;
41263;SDS011;26998;48.714;9.414;2023-03-23T10:33:23;3.55;;;1.85;;
41263;SDS011;26998;48.714;9.414;2023-03-23T10:38:23;8.15;;;2.50;;
41263;SDS011;26998;48.714;9.414;2023-03-23T10:40:56;5.75;;;2.22;;
41263;SDS011;26998;48.714;9.414;2023-03-23T10:43:25;3.03;;;1.90;;
41263;SDS011;26998;48.714;9.414;2023-03-23T10:45:54;2.08;;;1.60;;
41263;SDS011;26998;48.714;9.414;2023-03-23T10:48:27;3.55;;;1.90;;
41263;SDS011;26998;48.714;9.414;2023-03-23T10:50:56;7.40;;;2.10;;
41263;SDS011;26998;48.714;9.414;2023-03-23T10:53:23;3.65;;;1.88;;
41263;SDS011;26998;48.714;9.414;2023-03-23T10:58:24;5.88;;;2.00;;
41263;SDS011;26998;48.714;9.414;2023-03-23T11:00:52;4.43;;;2.15;;
41263;SDS011;26998;48.714;9.414;2023-03-23T11:05:53;4.47;;;1.73;;
41263;SDS011;26998;48.714;9.414;2023-03-23T11:08:24;5.57;;;1.63;;
41263;SDS011;26998;48.714;9.414;2023-03-23T11:10:53;3.03;;;1.30;;
41263;SDS011;26998;48.714;9.414;2023-03-23T11:13:20;5.90;;;1.80;;
41263;SDS011;26998;48.714;9.414;2023-03-23T11:15:49;3.05;;;1.80;;
41263;SDS011;26998;48.714;9.414;2023-03-23T11:18:19;5.90;;;1.67;;
41263;SDS011;26998;48.714;9.414;2023-03-23T11:20:47;2.38;;;1.63;;
41263;SDS011;26998;48.714;9.414;2023-03-23T11:23:20;7.22;;;2.80;;
41263;SDS011;26998;48.714;9.414;2023-03-23T11:25:57;4.25;;;1.80;;
41263;SDS011;26998;48.714;9.414;2023-03-23T11:28:52;3.10;;;1.90;;
41263;SDS011;26998;48.714;9.414;2023-03-23T11:31:21;2.30;;;1.50;;
41263;SDS011;26998;48.714;9.414;2023-03-23T11:33:53;2.75;;;1.90;;
41263;SDS011;26998;48.714;9.414;2023-03-23T11:36:33;2.90;;;1.70;;
41263;SDS011;26998;48.714;9.414;2023-03-23T11:39:27;2.00;;;1.52;;
41263;SDS011;26998;48.714;9.414;2023-03-23T11:41:50;1.73;;;1.60;;
41263;SDS011;26998;48.714;9.414;2023-03-23T11:44:16;5.53;;;1.98;;
41263;SDS011;26998;48.714;9.414;2023-03-23T11:50:00;3.58;;;2.00;;
41263;SDS011;26998;48.714;9.414;2023-03-23T11:52:37;4.35;;;1.73;;
41263;SDS011;26998;48.714;9.414;2023-03-23T11:55:10;3.38;;;1.88;;
41263;SDS011;26998;48.714;9.414;2023-03-23T11:57:39;4.85;;;2.45;;
41263;SDS011;26998;48.714;9.414;2023-03-23T12:00:14;3.45;;;2.22;;
41263;SDS011;26998;48.714;9.414;2023-03-23T12:08:20;5.10;;;2.17;;
41263;SDS011;26998;48.714;9.414;2023-03-23T12:11:16;7.50;;;3.03;;
41263;SDS011;26998;48.714;9.414;2023-03-23T12:14:00;5.22;;;2.28;;
41263;SDS011;26998;48.714;9.414;2023-03-23T12:19:34;4.82;;;2.33;;
41263;SDS011;26998;48.714;9.414;2023-03-23T12:36:08;4.47;;;1.85;;
41263;SDS011;26998;48.714;9.414;2023-03-23T12:41:42;6.85;;;2.08;;
41263;SDS011;26998;48.714;9.414;2023-03-23T12:44:14;7.70;;;2.15;;
41263;SDS011;26998;48.714;9.414;2023-03-23T12:46:45;9.75;;;2.25;;
41263;SDS011;26998;48.714;9.414;2023-03-23T12:49:33;5.88;;;3.08;;
41263;SDS011;26998;48.714;9.414;2023-03-23T12:54:45;2.45;;;1.60;;
41263;SDS011;26998;48.714;9.414;2023-03-23T13:07:49;5.72;;;2.38;;
41263;SDS011;26998;48.714;9.414;2023-03-23T13:10:22;5.03;;;2.55;;
41263;SDS011;26998;48.714;9.414;2023-03-23T13:13:18;4.55;;;2.78;;
41263;SDS011;26998;48.714;9.414;2023-03-23T13:16:06;3.92;;;2.15;;
41263;SDS011;26998;48.714;9.414;2023-03-23T13:21:21;2.80;;;2.08;;
41263;SDS011;26998;48.714;9.414;2023-03-23T13:23:57;2.22;;;1.70;;
41263;SDS011;26998;48.714;9.414;2023-03-23T13:26:26;3.40;;;1.88;;
41263;SDS011;26998;48.714;9.414;2023-03-23T13:28:56;2.53;;;1.80;;
41263;SDS011;26998;48.714;9.414;2023-03-23T13:31:27;5.80;;;2.70;;
41263;SDS011;26998;48.714;9.414;2023-03-23T13:33:57;5.45;;;2.20;;
41263;SDS011;26998;48.714;9.414;2023-03-23T13:36:51;4.05;;;1.90;;
41263;SDS011;26998;48.714;9.414;2023-03-23T13:39:20;4.00;;;2.35;;
41263;SDS011;26998;48.714;9.414;2023-03-23T13:41:46;3.17;;;2.17;;
41263;SDS011;26998;48.714;9.414;2023-03-23T13:45:19;4.53;;;2.22;;
41263;SDS011;26998;48.714;9.414;2023-03-23T13:49:51;4.85;;;3.50;;
41263;SDS011;26998;48.714;9.414;2023-03-23T13:52:47;3.28;;;2.97;;
41263;SDS011;26998;48.714;9.414;2023-03-23T13:57:52;3.15;;;1.77;;
41263;SDS011;26998;48.714;9.414;2023-03-23T14:03:03;4.47;;;2.60;;
41263;SDS011;26998;48.714;9.414;2023-03-23T14:05:50;6.15;;;2.90;;
41263;SDS011;26998;48.714;9.414;2023-03-23T14:10:58;3.95;;;2.15;;
41263;SDS011;26998;48.714;9.414;2023-03-23T14:16:14;3.22;;;2.08;;
41263;SDS011;26998;48.714;9.414;2023-03-23T14:18:55;1.95;;;1.75;;
41263;SDS011;26998;48.714;9.414;2023-03-23T14:23:59;3.65;;;2.35;;
41263;SDS011;26998;48.714;9.414;2023-03-23T14:26:26;2.95;;;2.00;;
41263;SDS011;26998;48.714;9.414;2023-03-23T14:28:52;2.22;;;1.90;;
41263;SDS011;26998;48.714;9.414;2023-03-23T14:31:25;6.10;;;2.00;;
41263;SDS011;26998;48.714;9.414;2023-03-23T14:33:53;3.25;;;1.92;;
41263;SDS011;26998;48.714;9.414;2023-03-23T14:36:23;4.82;;;2.38;;
41263;SDS011;26998;48.714;9.414;2023-03-23T14:41:23;4.82;;;2.22;;
41263;SDS011;26998;48.714;9.414;2023-03-23T14:43:48;2.15;;;1.75;;
41263;SDS011;26998;48.714;9.414;2023-03-23T14:46:14;2.83;;;2.08;;
41263;SDS011;26998;48.714;9.414;2023-03-23T14:48:41;3.53;;;2.17;;
41263;SDS011;26998;48.714;9.414;2023-03-23T14:51:06;4.93;;;2.65;;
41263;SDS011;26998;48.714;9.414;2023-03-23T14:53:42;4.75;;;3.55;;
41263;SDS011;26998;48.714;9.414;2023-03-23T14:56:14;2.55;;;2.35;;
41263;SDS011;26998;48.714;9.414;2023-03-23T14:58:45;2.40;;;2.10;;
41263;SDS011;26998;48.714;9.414;2023-03-23T15:01:16;4.15;;;2.60;;
41263;SDS011;26998;48.714;9.414;2023-03-23T15:03:52;5.53;;;2.58;;
41263;SDS011;26998;48.714;9.414;2023-03-23T15:06:24;4.10;;;2.15;;
41263;SDS011;26998;48.714;9.414;2023-03-23T15:08:54;3.75;;;2.55;;
41263;SDS011;26998;48.714;9.414;2023-03-23T15:11:27;4.40;;;2.30;;
41263;SDS011;26998;48.714;9.414;2023-03-23T15:13:57;5.22;;;2.50;;
41263;SDS011;26998;48.714;9.414;2023-03-23T15:16:30;3.77;;;1.93;;
41263;SDS011;26998;48.714;9.414;2023-03-23T15:18:58;3.25;;;2.13;;
41263;SDS011;26998;48.714;9.414;2023-03-23T15:21:32;4.93;;;2.38;;
41263;SDS011;26998;48.714;9.414;2023-03-23T15:24:01;2.92;;;2.20;;
41263;SDS011;26998;48.714;9.414;2023-03-23T15:26:44;5.40;;;2.63;;
41263;SDS011;26998;48.714;9.414;2023-03-23T15:29:11;9.60;;;3.03;;
41263;SDS011;26998;48.714;9.414;2023-03-23T15:32:00;5.88;;;2.80;;
41263;SDS011;26998;48.714;9.414;2023-03-23T15:34:32;3.40;;;2.08;;
41263;SDS011;26998;48.714;9.414;2023-03-23T15:37:01;5.05;;;2.38;;
41263;SDS011;26998;48.714;9.414;2023-03-23T15:39:28;4.50;;;1.90;;
41263;SDS011;26998;48.714;9.414;2023-03-23T15:41:55;5.57;;;2.42;;
41263;SDS011;26998;48.714;9.414;2023-03-23T15:44:29;5.22;;;2.55;;
41263;SDS011;26998;48.714;9.414;2023-03-23T15:47:34;2.40;;;2.08;;
41263;SDS011;26998;48.714;9.414;2023-03-23T15:50:18;5.43;;;2.10;;
41263;SDS011;26998;48.714;9.414;2023-03-23T15:52:56;3.70;;;2.47;;
41263;SDS011;26998;48.714;9.414;2023-03-23T15:57:50;3.65;;;2.40;;
41263;SDS011;26998;48.714;9.414;2023-03-23T16:00:20;2.45;;;2.15;;
41263;SDS011;26998;48.714;9.414;2023-03-23T16:02:49;4.80;;;2.10;;
41263;SDS011;26998;48.714;9.414;2023-03-23T16:05:23;7.68;;;3.20;;
41263;SDS011;26998;48.714;9.414;2023-03-23T16:07:50;3.72;;;1.55;;
41263;SDS011;26998;48.714;9.414;2023-03-23T16:10:17;3.53;;;2.10;;
41263;SDS011;26998;48.714;9.414;2023-03-23T16:12:46;4.47;;;3.15;;
41263;SDS011;26998;48.714;9.414;2023-03-23T16:15:13;4.40;;;2.15;;
41263;SDS011;26998;48.714;9.414;2023-03-23T16:17:41;4.03;;;2.20;;
41263;SDS011;26998;48.714;9.414;2023-03-23T16:20:15;4.00;;;2.20;;
41263;SDS011;26998;48.714;9.414;2023-03-23T16:22:44;3.72;;;2.20;;
41263;SDS011;26998;48.714;9.414;2023-03-23T16:25:11;9.35;;;2.53;;
41263;SDS011;26998;48.714;9.414;2023-03-23T16:27:39;2.85;;;2.03;;
41263;SDS011;26998;48.714;9.414;2023-03-23T16:30:14;4.07;;;2.28;;
41263;SDS011;26998;48.714;9.414;2023-03-23T16:32:43;5.68;;;2.45;;
41263;SDS011;26998;48.714;9.414;2023-03-23T16:35:10;6.68;;;2.65;;
41263;SDS011;26998;48.714;9.414;2023-03-23T16:37:36;2.80;;;1.75;;
41263;SDS011;26998;48.714;9.414;2023-03-23T16:40:03;4.95;;;2.45;;
41263;SDS011;26998;48.714;9.414;2023-03-23T16:42:31;6.10;;;2.38;;
41263;SDS011;26998;48.714;9.414;2023-03-23T16:44:58;2.90;;;2.00;;
41263;SDS011;26998;48.714;9.414;2023-03-23T16:47:24;3.00;;;2.28;;
41263;SDS011;26998;48.714;9.414;2023-03-23T16:49:51;2.60;;;2.25;;